This is the latest recevied weather packets stored in our database for station/object W2JBO-5. If no packets are shown the sender has not sent any weather packets the latest 10 day(s).
| Time | Temp. | Humidity | Pressure | Rain* | Wind** | Luminosity | Snow |
|---|---|---|---|---|---|---|---|
| 1777907469 | 23.33° C | 60% | 1018 hPa | 0 mm | - | 765 W/m² | - |
| 1777907167 | 22.78° C | 60% | 1018 hPa | 0 mm | - | 716 W/m² | - |
| 1777906864 | 22.78° C | 60% | 1018 hPa | 0 mm | - | 702 W/m² | - |
| 1777906561 | 22.78° C | 60% | 1018 hPa | 0 mm | - | 685 W/m² | - |
| 1777906256 | 22.78° C | 59% | 1018 hPa | 0 mm | - | 692 W/m² | - |
| 1777905953 | 22.78° C | 64% | 1017.9 hPa | 0 mm | - | 658 W/m² | - |
| 1777905650 | 22.22° C | 63% | 1018.1 hPa | 0 mm | - | 621 W/m² | - |
| 1777905347 | 22.78° C | 65% | 1018.1 hPa | 0 mm | - | 629 W/m² | - |
| 1777905044 | 22.78° C | 65% | 1018.1 hPa | 0 mm | - | 632 W/m² | - |
| 1777904742 | 22.78° C | 67% | 1017.9 hPa | 0 mm | - | 613 W/m² | - |
| 1777904439 | 22.22° C | 66% | 1017.9 hPa | 0 mm | - | 522 W/m² | - |
| 1777904135 | 22.22° C | 69% | 1018.1 hPa | 0 mm | - | 517 W/m² | - |
| 1777903832 | 22.22° C | 70% | 1018.1 hPa | 0 mm | - | 555 W/m² | - |
| 1777903529 | 21.67° C | 73% | 1017.8 hPa | 0 mm | - | 508 W/m² | - |
| 1777903225 | 21.67° C | 69% | 1018.2 hPa | 0 mm | - | 447 W/m² | - |
| 1777902921 | 21.11° C | 74% | 1017.9 hPa | 0 mm | - | 423 W/m² | - |
| 1777902618 | 21.67° C | 72% | 1017.9 hPa | 0 mm | - | 395 W/m² | - |
| 1777902315 | 21.11° C | 74% | 1018 hPa | 0 mm | - | 369 W/m² | - |
| 1777902013 | 20.56° C | 77% | 1017.9 hPa | 0 mm | - | 332 W/m² | - |
| 1777901711 | 20° C | 77% | 1017.9 hPa | 0 mm | - | 298 W/m² | - |
| 1777901408 | 20.56° C | 76% | 1017.9 hPa | 0 mm | - | 305 W/m² | - |
| 1777901105 | 20.56° C | 76% | 1018 hPa | 0 mm | - | 289 W/m² | - |
| 1777900803 | 19.44° C | 77% | 1018.1 hPa | 0 mm | - | 268 W/m² | - |
| 1777900500 | 19.44° C | 82% | 1018.2 hPa | 0 mm | - | 257 W/m² | - |
| 1777900197 | 18.89° C | 82% | 1018.1 hPa | 0 mm | - | 268 W/m² | - |
* Rain latest hour (hover to see other rain measurements)
** Current wind speed in m/s (hover to see current wind gust speed)